Live aus Altenrhein
LIVE
LSZR 150420Z AUTO 11006KT 070V150 9999 NSC 03/01 Q0999
Zeitraffer heute
2017-12-15 00:15:00
LSZR 142250Z AUTO 18009KT 140V210 8000 -RA BKN009 SCT120 04/02 Q0997
Zeitraffer gestern
2017-12-14 00:00:00
LSZR 132250Z AUTO 29013KT 9999 BKN050 03/00 Q1001
Zeitraffer vor 3 Tagen
2017-12-12 00:14:52
LSZR 112250Z AUTO 18013G23KT 160V230 9999 -RA BKN/// 06/03 Q0993